FCBB/BZV METAR and TAF weather

Enter ICAO airport designator
Station Type Date Time Source
FCBB METAR 2018/10/22 16:00 UTC NOAA

FCBB 221600Z 27004KT 240V310 9999 TS FEW023 FEW030CB 25/21 Q1008 NOSIG


Station Type Date Time Source
FCBB Decoded METAR 2018/10/22 16:00 UTC NOAA

Brazzaville / Maya-Maya, Congo, Republic of the (FCBB) 04-15S 015-15E 316M
Oct 22, 2018 - 12:00 PM EDT / 2018.10.22 1600 UTC
Wind: from the W (270 degrees) at 5 MPH (4 KT) (direction variable):0
Visibility: greater than 7 mile(s):0
Sky conditions: mostly clear
Weather: thunder; Cumulonimbus clouds observed
Temperature: 77 F (25 C)
Dew Point: 69 F (21 C)
Relative Humidity: 78%
Pressure (altimeter): 29.77 in. Hg (1008 hPa)
ob: FCBB 221600Z 27004KT 240V310 9999 TS FEW023 FEW030CB 25/21 Q1008 NOSIG
cycle: 16

Station Type Date Time Source
FCBB TAF 2018/10/22 12:09 UTC NOAA

TAF TAF FCBB 221100Z 2212/2318 22004KT 9000 SCT013 SCT023
BECMG 2213/2215 SCT014 SCT023 FEW026CB
TEMPO 2217/2223 TS
BECMG 2223/2301 SCT012 SCT023 PROB40 2314/2318 SCT015 SCT023 FEW030CB


Example: see airport list